createdAt,value
2022-10-04T00:02:31.709Z,100.00
2022-10-04T00:05:33.862Z,100.00
2022-10-04T00:08:38.774Z,100.00
2022-10-04T00:11:44.159Z,100.00
2022-10-04T00:14:46.245Z,100.00
2022-10-04T00:18:00.533Z,100.00
2022-10-04T00:21:03.895Z,100.00
2022-10-04T00:24:09.976Z,100.00
2022-10-04T00:27:19.934Z,100.00
2022-10-04T00:30:22.769Z,100.00
2022-10-04T00:33:35.004Z,100.00
2022-10-04T00:36:39.054Z,100.00
2022-10-04T00:39:42.487Z,100.00
2022-10-04T00:42:50.600Z,100.00
2022-10-04T00:45:54.492Z,100.00
2022-10-04T00:48:58.625Z,100.00
2022-10-04T00:52:02.747Z,100.00
2022-10-04T00:55:06.229Z,100.00
2022-10-04T00:58:16.483Z,100.00
2022-10-04T01:01:22.309Z,100.00
2022-10-04T01:04:27.667Z,100.00
2022-10-04T01:07:31.437Z,100.00
2022-10-04T01:10:36.446Z,100.00
2022-10-04T01:13:41.502Z,100.00
2022-10-04T01:16:43.552Z,100.00
2022-10-04T01:19:50.537Z,100.00
2022-10-04T01:22:53.601Z,100.00
2022-10-04T01:25:55.431Z,100.00
2022-10-04T01:28:58.608Z,100.00
2022-10-04T01:32:00.990Z,100.00
2022-10-04T01:35:03.053Z,100.00
2022-10-04T01:38:06.968Z,100.00
2022-10-04T01:41:09.854Z,100.00
2022-10-04T01:44:15.136Z,100.00
2022-10-04T01:47:19.004Z,100.00
2022-10-04T01:50:24.526Z,100.00
2022-10-04T01:53:29.016Z,100.00
2022-10-04T01:56:33.529Z,100.00
2022-10-04T01:59:40.756Z,100.00
2022-10-04T02:02:45.825Z,100.00
2022-10-04T02:05:51.003Z,100.00
2022-10-04T02:08:54.957Z,100.00
2022-10-04T02:11:57.160Z,100.00
2022-10-04T02:15:01.241Z,100.00
2022-10-04T02:18:03.614Z,100.00
2022-10-04T02:21:05.870Z,100.00
2022-10-04T02:24:09.514Z,100.00
2022-10-04T02:27:11.684Z,100.00
2022-10-04T02:30:13.869Z,100.00
2022-10-04T02:33:15.538Z,100.00
2022-10-04T02:36:17.862Z,100.00
2022-10-04T02:39:23.799Z,100.00
2022-10-04T02:42:33.654Z,100.00
2022-10-04T02:45:40.308Z,100.00
2022-10-04T02:48:45.489Z,100.00
2022-10-04T02:51:50.919Z,100.00
2022-10-04T02:54:57.813Z,100.00
2022-10-04T02:57:59.905Z,100.00
2022-10-04T03:01:01.680Z,100.00
2022-10-04T03:04:03.549Z,100.00
2022-10-04T03:07:06.677Z,100.00
2022-10-04T03:10:11.018Z,100.00
2022-10-04T03:13:13.328Z,100.00
2022-10-04T03:16:15.601Z,100.00
2022-10-04T03:19:18.214Z,100.00
2022-10-04T03:22:20.099Z,100.00
2022-10-04T03:25:26.327Z,100.00
2022-10-04T03:28:29.457Z,100.00
2022-10-04T03:31:42.242Z,100.00
2022-10-04T03:34:52.297Z,100.00
2022-10-04T03:37:55.212Z,100.00
2022-10-04T03:41:00.076Z,100.00
2022-10-04T03:44:05.041Z,100.00
2022-10-04T03:47:08.866Z,100.00
2022-10-04T03:50:14.453Z,100.00
2022-10-04T03:53:24.519Z,100.00
2022-10-04T03:56:29.689Z,100.00
2022-10-04T03:59:31.602Z,100.00
2022-10-04T04:02:36.327Z,100.00
2022-10-04T04:05:42.772Z,100.00
2022-10-04T04:08:47.426Z,100.00
2022-10-04T04:11:51.165Z,100.00
2022-10-04T04:14:53.395Z,100.00
2022-10-04T04:17:55.334Z,100.00
2022-10-04T04:20:59.283Z,100.00
2022-10-04T04:24:02.536Z,100.00
2022-10-04T04:27:05.722Z,100.00
2022-10-04T04:30:08.173Z,100.00
2022-10-04T04:33:15.715Z,100.00
2022-10-04T04:36:20.677Z,100.00
2022-10-04T04:39:23.265Z,100.00
2022-10-04T04:42:29.958Z,100.00
2022-10-04T04:45:33.187Z,100.00
2022-10-04T04:48:35.359Z,100.00
2022-10-04T04:51:37.313Z,100.00
2022-10-04T04:54:39.018Z,100.00
2022-10-04T04:57:42.845Z,100.00
2022-10-04T05:00:47.065Z,100.00
2022-10-04T05:03:59.789Z,100.00
2022-10-04T05:07:02.906Z,100.00
2022-10-04T05:10:19.256Z,100.00
2022-10-04T05:13:23.611Z,100.00
2022-10-04T05:16:28.233Z,100.00
2022-10-04T05:19:32.249Z,100.00
2022-10-04T05:22:35.191Z,100.00
2022-10-04T05:25:36.963Z,100.00
2022-10-04T05:28:40.624Z,100.00
2022-10-04T05:31:46.862Z,100.00
2022-10-04T05:34:49.947Z,100.00
2022-10-04T05:38:03.176Z,100.00
2022-10-04T05:41:08.354Z,100.00
2022-10-04T05:44:23.735Z,100.00
2022-10-04T05:47:26.846Z,100.00
2022-10-04T05:50:30.182Z,100.00
2022-10-04T05:53:32.629Z,100.00
2022-10-04T05:56:47.781Z,100.00
2022-10-04T06:00:04.706Z,100.00
2022-10-04T06:03:32.061Z,100.00
2022-10-04T06:06:37.804Z,100.00
2022-10-04T06:09:46.955Z,100.00
2022-10-04T06:12:53.293Z,100.00
2022-10-04T06:16:05.277Z,100.00
2022-10-04T06:19:33.913Z,100.00
2022-10-04T06:22:43.026Z,100.00
2022-10-04T06:25:47.058Z,100.00
2022-10-04T06:28:51.504Z,100.00
2022-10-04T06:32:14.456Z,100.00
2022-10-04T06:35:23.109Z,100.00
2022-10-04T06:38:40.003Z,100.00
2022-10-04T06:41:45.640Z,100.00
2022-10-04T06:45:01.747Z,100.00
2022-10-04T06:48:14.466Z,100.00
2022-10-04T06:51:23.639Z,100.00
2022-10-04T06:54:34.951Z,100.00
2022-10-04T06:57:46.166Z,100.00
2022-10-04T07:00:51.312Z,100.00
2022-10-04T07:03:57.230Z,100.00
2022-10-04T07:07:11.911Z,100.00
2022-10-04T07:10:30.130Z,100.00
2022-10-04T07:13:34.549Z,100.00
2022-10-04T07:16:39.179Z,100.00
2022-10-04T07:19:46.232Z,100.00
2022-10-04T07:22:52.012Z,100.00
2022-10-04T07:25:55.588Z,100.00
2022-10-04T07:29:01.292Z,100.00
2022-10-04T07:32:09.449Z,100.00
2022-10-04T07:35:17.050Z,100.00
2022-10-04T07:38:23.498Z,100.00
2022-10-04T07:41:28.674Z,100.00
2022-10-04T07:44:34.361Z,100.00
2022-10-04T07:47:36.168Z,100.00
2022-10-04T07:50:42.914Z,100.00
2022-10-04T07:53:48.889Z,100.00
2022-10-04T07:56:53.620Z,100.00
2022-10-04T08:00:01.049Z,100.00
2022-10-04T08:03:14.253Z,100.00
2022-10-04T08:06:22.176Z,100.00
2022-10-04T08:09:27.458Z,100.00
2022-10-04T08:12:34.112Z,100.00
2022-10-04T08:15:36.944Z,100.00
2022-10-04T08:18:42.813Z,100.00
2022-10-04T08:21:49.496Z,100.00
2022-10-04T08:24:57.867Z,100.00
2022-10-04T08:28:03.405Z,100.00
2022-10-04T08:31:13.245Z,100.00
2022-10-04T08:34:28.563Z,100.00
2022-10-04T08:37:35.347Z,100.00
2022-10-04T08:41:02.670Z,100.00
2022-10-04T08:44:34.564Z,100.00
2022-10-04T08:47:49.429Z,100.00
2022-10-04T08:51:08.918Z,100.00
2022-10-04T08:54:31.400Z,100.00
2022-10-04T08:58:06.128Z,100.00
2022-10-04T09:01:22.658Z,100.00
2022-10-04T09:04:42.036Z,100.00
2022-10-04T09:08:13.862Z,100.00
2022-10-04T09:11:30.718Z,100.00
2022-10-04T09:14:45.134Z,100.00
2022-10-04T09:17:53.294Z,100.00
2022-10-04T09:20:56.321Z,100.00
2022-10-04T09:24:16.626Z,100.00
2022-10-04T09:27:53.590Z,100.00
2022-10-04T09:31:01.460Z,100.00
2022-10-04T09:34:13.289Z,100.00
2022-10-04T09:37:29.734Z,100.00
2022-10-04T09:40:37.477Z,100.00
2022-10-04T09:43:57.717Z,100.00
2022-10-04T09:47:20.680Z,100.00
2022-10-04T09:50:30.582Z,100.00
2022-10-04T09:53:40.282Z,100.00
2022-10-04T09:56:51.457Z,100.00
2022-10-04T10:00:09.202Z,100.00
2022-10-04T10:03:25.793Z,100.00
2022-10-04T10:06:33.952Z,100.00
2022-10-04T10:09:39.945Z,100.00
2022-10-04T10:12:56.140Z,100.00
2022-10-04T10:16:05.157Z,100.00
2022-10-04T10:19:16.511Z,100.00
2022-10-04T10:22:26.602Z,100.00
2022-10-04T10:25:37.525Z,100.00
2022-10-04T10:28:57.063Z,100.00
2022-10-04T10:32:10.288Z,98.38
2022-10-04T10:35:19.834Z,100.00
2022-10-04T10:38:27.595Z,100.00
2022-10-04T10:41:38.195Z,99.15
2022-10-04T10:44:47.542Z,97.88
2022-10-04T10:47:54.073Z,98.35
2022-10-04T10:51:02.021Z,98.85
2022-10-04T10:54:21.281Z,100.00
2022-10-04T10:57:34.239Z,97.69
2022-10-04T11:00:42.454Z,96.48
2022-10-04T11:04:11.055Z,97.75
2022-10-04T11:07:31.413Z,91.59
2022-10-04T11:10:40.925Z,89.94
2022-10-04T11:14:00.939Z,95.69
2022-10-04T11:17:17.783Z,95.94
2022-10-04T11:20:34.069Z,96.30
2022-10-04T11:23:53.686Z,92.83
2022-10-04T11:27:08.628Z,92.39
2022-10-04T11:30:13.730Z,92.29
2022-10-04T11:33:29.142Z,90.83
2022-10-04T11:36:39.072Z,92.31
2022-10-04T11:40:10.671Z,89.73
2022-10-04T11:43:24.317Z,88.23
2022-10-04T11:46:32.797Z,89.50
2022-10-04T11:49:43.306Z,92.38
2022-10-04T11:53:03.847Z,92.99
2022-10-04T11:56:15.682Z,91.77
2022-10-04T11:59:23.388Z,88.62
2022-10-04T12:02:34.682Z,90.39
2022-10-04T12:05:53.108Z,91.16
2022-10-04T12:09:01.612Z,86.77
2022-10-04T12:12:27.025Z,82.61
2022-10-04T12:15:44.675Z,82.59
2022-10-04T12:19:01.151Z,84.31
2022-10-04T12:22:14.878Z,82.01
2022-10-04T12:25:32.496Z,84.10
2022-10-04T12:28:46.514Z,83.17
2022-10-04T12:31:50.837Z,84.87
2022-10-04T12:34:57.113Z,85.11
2022-10-04T12:38:18.632Z,85.69
2022-10-04T12:41:31.169Z,84.05
2022-10-04T12:44:40.324Z,86.19
2022-10-04T12:47:58.243Z,86.62
2022-10-04T12:51:10.228Z,85.22
2022-10-04T12:54:17.162Z,83.25
2022-10-04T12:57:33.373Z,81.67
2022-10-04T13:00:41.068Z,79.44
2022-10-04T13:04:00.734Z,79.06
2022-10-04T13:07:23.375Z,81.63
2022-10-04T13:10:29.982Z,80.29
2022-10-04T13:13:48.992Z,82.35
2022-10-04T13:20:34.223Z,82.45
2022-10-04T13:23:47.744Z,82.29
2022-10-04T13:26:55.115Z,78.70
2022-10-04T13:30:01.401Z,79.44
2022-10-04T13:33:11.324Z,80.52
2022-10-04T13:36:18.186Z,79.42
2022-10-04T13:39:41.740Z,77.04
2022-10-04T13:42:54.501Z,82.42
2022-10-04T13:46:01.689Z,79.95
2022-10-04T13:49:13.852Z,82.00
2022-10-04T13:52:23.209Z,78.95
2022-10-04T13:55:32.564Z,76.46
2022-10-04T13:58:42.705Z,77.18
2022-10-04T14:01:54.716Z,79.51
2022-10-04T14:05:12.894Z,80.23
2022-10-04T14:08:33.025Z,75.88
2022-10-04T14:11:44.060Z,79.56
2022-10-04T14:15:05.718Z,76.49
2022-10-04T14:18:31.096Z,75.89
2022-10-04T14:21:49.244Z,75.36
2022-10-04T14:25:08.176Z,77.40
2022-10-04T14:28:16.769Z,78.30
2022-10-04T14:31:33.354Z,77.67
2022-10-04T14:34:51.139Z,77.69
2022-10-04T14:38:13.914Z,78.50
2022-10-04T14:41:34.051Z,73.66
2022-10-04T14:44:48.806Z,74.96
2022-10-04T14:48:08.985Z,76.08
2022-10-04T14:51:19.692Z,74.03
2022-10-04T14:54:29.945Z,75.06
2022-10-04T14:57:47.291Z,75.38
2022-10-04T15:01:02.287Z,74.77
2022-10-04T15:04:11.041Z,76.82
2022-10-04T15:07:17.963Z,76.36
2022-10-04T15:10:22.219Z,77.33
2022-10-04T15:13:25.994Z,76.69
2022-10-04T15:16:36.935Z,74.93
2022-10-04T15:19:54.093Z,75.25
2022-10-04T15:22:56.833Z,76.36
2022-10-04T15:26:02.090Z,75.71
2022-10-04T15:29:12.259Z,77.51
2022-10-04T15:32:20.643Z,75.57
2022-10-04T15:35:28.150Z,74.05
2022-10-04T15:38:31.763Z,70.20
2022-10-04T15:41:37.198Z,74.24
2022-10-04T15:44:45.830Z,71.49
2022-10-04T15:48:02.277Z,72.05
2022-10-04T15:51:10.190Z,72.18
2022-10-04T15:54:17.709Z,69.59
2022-10-04T15:57:26.678Z,71.13
2022-10-04T16:00:29.562Z,71.71
2022-10-04T16:03:39.508Z,75.02
2022-10-04T16:06:45.672Z,72.49
2022-10-04T16:09:50.392Z,76.52
2022-10-04T16:13:09.967Z,79.58
2022-10-04T16:16:31.142Z,84.10
2022-10-04T16:19:43.299Z,87.54
2022-10-04T16:22:59.860Z,85.64
2022-10-04T16:26:04.170Z,89.12
2022-10-04T16:29:12.815Z,94.78
2022-10-04T16:32:17.219Z,96.45
2022-10-04T16:35:24.888Z,99.64
2022-10-04T16:38:27.021Z,100.00
2022-10-04T16:41:34.243Z,100.00
2022-10-04T16:44:38.653Z,100.00
2022-10-04T16:47:50.186Z,100.00
2022-10-04T16:51:09.459Z,100.00
2022-10-04T16:54:31.003Z,100.00
2022-10-04T16:57:34.153Z,100.00
2022-10-04T17:00:36.122Z,100.00
2022-10-04T17:03:46.050Z,100.00
2022-10-04T17:06:50.419Z,100.00
2022-10-04T17:09:55.834Z,100.00
2022-10-04T17:13:06.434Z,100.00
2022-10-04T17:16:11.526Z,100.00
2022-10-04T17:19:15.140Z,100.00
2022-10-04T17:22:23.810Z,100.00
2022-10-04T17:25:29.629Z,100.00
2022-10-04T17:28:34.855Z,100.00
2022-10-04T17:31:44.238Z,100.00
2022-10-04T17:34:51.018Z,100.00
2022-10-04T17:37:56.420Z,100.00
2022-10-04T17:41:02.976Z,100.00
2022-10-04T17:44:17.067Z,100.00
2022-10-04T17:47:24.183Z,100.00
2022-10-04T17:50:29.184Z,100.00
2022-10-04T17:53:33.986Z,100.00
2022-10-04T17:56:39.311Z,100.00
2022-10-04T17:59:44.595Z,100.00
2022-10-04T18:03:01.249Z,100.00
2022-10-04T18:06:11.438Z,100.00
2022-10-04T18:09:19.835Z,100.00
2022-10-04T18:12:27.230Z,100.00
2022-10-04T18:15:32.303Z,100.00
2022-10-04T18:18:38.552Z,100.00
2022-10-04T18:21:49.031Z,100.00
2022-10-04T18:25:11.977Z,100.00
2022-10-04T18:28:14.800Z,100.00
2022-10-04T18:31:23.665Z,100.00
2022-10-04T18:34:28.460Z,100.00
2022-10-04T18:37:33.944Z,100.00
2022-10-04T18:40:42.970Z,100.00
2022-10-04T18:43:51.467Z,100.00
2022-10-04T18:47:00.568Z,100.00
2022-10-04T18:50:14.381Z,100.00
2022-10-04T18:53:37.093Z,100.00
2022-10-04T18:56:42.676Z,100.00
2022-10-04T18:59:50.840Z,100.00
2022-10-04T19:03:00.274Z,100.00
2022-10-04T19:06:06.413Z,100.00
2022-10-04T19:09:13.869Z,100.00
2022-10-04T19:12:18.066Z,100.00
2022-10-04T19:15:26.974Z,100.00
2022-10-04T19:18:39.023Z,100.00
2022-10-04T19:21:46.146Z,100.00
2022-10-04T19:24:56.060Z,100.00
2022-10-04T19:28:01.165Z,100.00
2022-10-04T19:31:12.096Z,100.00
2022-10-04T19:34:19.088Z,100.00
2022-10-04T19:37:24.537Z,100.00
2022-10-04T19:40:29.228Z,100.00
2022-10-04T19:43:34.654Z,100.00
2022-10-04T19:46:39.001Z,100.00
2022-10-04T19:49:49.589Z,100.00
2022-10-04T19:52:53.886Z,100.00
2022-10-04T19:55:57.090Z,100.00
2022-10-04T19:59:04.596Z,100.00
2022-10-04T20:02:09.378Z,100.00
2022-10-04T20:05:14.853Z,100.00
2022-10-04T20:08:37.042Z,100.00
2022-10-04T20:11:46.770Z,100.00
2022-10-04T20:14:48.675Z,100.00
2022-10-04T20:17:50.569Z,100.00
2022-10-04T20:21:09.869Z,100.00
2022-10-04T20:24:15.810Z,100.00
2022-10-04T20:27:32.244Z,100.00
2022-10-04T20:30:49.719Z,100.00
2022-10-04T20:33:51.506Z,100.00
2022-10-04T20:36:54.769Z,100.00
2022-10-04T20:39:56.995Z,100.00
2022-10-04T20:43:13.642Z,100.00
2022-10-04T20:46:21.981Z,100.00
2022-10-04T20:49:23.671Z,100.00
2022-10-04T20:52:28.036Z,100.00
2022-10-04T20:55:31.163Z,100.00
2022-10-04T20:58:33.506Z,100.00
2022-10-04T21:01:36.234Z,100.00
2022-10-04T21:04:38.028Z,100.00
2022-10-04T21:07:41.138Z,100.00
2022-10-04T21:10:57.759Z,100.00
2022-10-04T21:14:00.073Z,100.00
2022-10-04T21:17:03.182Z,100.00
2022-10-04T21:20:06.038Z,100.00
2022-10-04T21:23:09.359Z,100.00
2022-10-04T21:26:20.572Z,100.00
2022-10-04T21:29:22.197Z,100.00
2022-10-04T21:32:24.742Z,100.00
2022-10-04T21:35:26.460Z,100.00
2022-10-04T21:38:29.475Z,100.00
2022-10-04T21:41:31.230Z,100.00
2022-10-04T21:44:32.960Z,100.00
2022-10-04T21:47:34.581Z,100.00
2022-10-04T21:50:36.598Z,100.00
2022-10-04T21:53:39.593Z,100.00
2022-10-04T21:56:41.222Z,100.00
2022-10-04T21:59:42.823Z,100.00
2022-10-04T22:02:44.535Z,100.00
2022-10-04T22:05:46.234Z,100.00
2022-10-04T22:08:49.299Z,100.00
2022-10-04T22:11:51.050Z,100.00
2022-10-04T22:14:52.697Z,100.00
2022-10-04T22:17:54.832Z,100.00
2022-10-04T22:20:56.812Z,100.00
2022-10-04T22:23:59.934Z,100.00
2022-10-04T22:27:01.816Z,100.00
2022-10-04T22:30:03.660Z,100.00
2022-10-04T22:33:23.168Z,100.00
2022-10-04T22:36:27.247Z,100.00
2022-10-04T22:39:32.214Z,100.00
2022-10-04T22:42:33.817Z,100.00
2022-10-04T22:45:36.377Z,100.00
2022-10-04T22:48:38.021Z,100.00
2022-10-04T22:51:40.383Z,100.00
2022-10-04T22:54:44.721Z,100.00
2022-10-04T22:57:46.449Z,100.00
2022-10-04T23:00:48.996Z,100.00
2022-10-04T23:03:50.849Z,100.00
2022-10-04T23:06:52.858Z,100.00
2022-10-04T23:09:55.891Z,100.00
2022-10-04T23:12:57.559Z,100.00
2022-10-04T23:16:00.305Z,100.00
2022-10-04T23:19:09.246Z,100.00
2022-10-04T23:22:14.859Z,100.00
2022-10-04T23:25:19.014Z,100.00
2022-10-04T23:28:21.189Z,100.00
2022-10-04T23:31:24.339Z,100.00
2022-10-04T23:34:27.880Z,100.00
2022-10-04T23:37:30.878Z,100.00
2022-10-04T23:40:33.877Z,100.00
2022-10-04T23:43:35.665Z,100.00
2022-10-04T23:46:37.330Z,100.00
2022-10-04T23:49:39.213Z,100.00
2022-10-04T23:52:40.805Z,100.00
2022-10-04T23:55:44.436Z,100.00
2022-10-04T23:58:46.449Z,100.00
